sensor_id;sensor_type;location;lat;lon;timestamp;temperature;humidity
72936;DHT22;61085;48.804;9.228;2023-04-29T00:00:53;14.10;99.90
72936;DHT22;61085;48.804;9.228;2023-04-29T00:03:18;14.10;99.90
72936;DHT22;61085;48.804;9.228;2023-04-29T00:05:44;14.10;99.90
72936;DHT22;61085;48.804;9.228;2023-04-29T00:08:10;14.10;99.90
72936;DHT22;61085;48.804;9.228;2023-04-29T00:10:36;14.10;99.90
72936;DHT22;61085;48.804;9.228;2023-04-29T00:13:02;14.10;99.90
72936;DHT22;61085;48.804;9.228;2023-04-29T00:15:27;14.00;99.90
72936;DHT22;61085;48.804;9.228;2023-04-29T00:17:53;14.00;99.90
72936;DHT22;61085;48.804;9.228;2023-04-29T00:20:19;14.00;99.90
72936;DHT22;61085;48.804;9.228;2023-04-29T00:22:44;14.00;99.90
72936;DHT22;61085;48.804;9.228;2023-04-29T00:25:10;14.00;99.90
72936;DHT22;61085;48.804;9.228;2023-04-29T00:27:36;14.00;99.90
72936;DHT22;61085;48.804;9.228;2023-04-29T00:30:05;14.00;99.90
72936;DHT22;61085;48.804;9.228;2023-04-29T00:32:31;14.10;99.90
72936;DHT22;61085;48.804;9.228;2023-04-29T00:34:56;14.00;99.90
72936;DHT22;61085;48.804;9.228;2023-04-29T00:37:22;14.00;99.90
72936;DHT22;61085;48.804;9.228;2023-04-29T00:39:47;14.00;99.90
72936;DHT22;61085;48.804;9.228;2023-04-29T00:42:13;14.00;99.90
72936;DHT22;61085;48.804;9.228;2023-04-29T00:44:39;13.90;99.90
72936;DHT22;61085;48.804;9.228;2023-04-29T00:47:04;13.90;99.90
72936;DHT22;61085;48.804;9.228;2023-04-29T00:49:30;13.80;99.90
72936;DHT22;61085;48.804;9.228;2023-04-29T00:51:56;13.90;99.90
72936;DHT22;61085;48.804;9.228;2023-04-29T00:54:23;13.90;99.90
72936;DHT22;61085;48.804;9.228;2023-04-29T00:56:49;14.00;99.90
72936;DHT22;61085;48.804;9.228;2023-04-29T00:59:15;13.90;99.90
72936;DHT22;61085;48.804;9.228;2023-04-29T01:01:41;13.90;99.90
72936;DHT22;61085;48.804;9.228;2023-04-29T01:04:08;13.90;99.90
72936;DHT22;61085;48.804;9.228;2023-04-29T01:12:38;13.90;99.90
72936;DHT22;61085;48.804;9.228;2023-04-29T01:15:32;13.90;99.90
72936;DHT22;61085;48.804;9.228;2023-04-29T01:18:04;13.90;99.90
72936;DHT22;61085;48.804;9.228;2023-04-29T01:20:31;13.80;99.90
72936;DHT22;61085;48.804;9.228;2023-04-29T01:22:57;13.80;99.90
72936;DHT22;61085;48.804;9.228;2023-04-29T01:25:23;13.90;99.90
72936;DHT22;61085;48.804;9.228;2023-04-29T01:31:09;13.90;99.90
72936;DHT22;61085;48.804;9.228;2023-04-29T01:34:01;13.90;99.90
72936;DHT22;61085;48.804;9.228;2023-04-29T01:39:19;13.80;99.90
72936;DHT22;61085;48.804;9.228;2023-04-29T01:41:51;13.90;99.90
72936;DHT22;61085;48.804;9.228;2023-04-29T01:44:22;13.80;99.90
72936;DHT22;61085;48.804;9.228;2023-04-29T01:46:50;13.80;99.90
72936;DHT22;61085;48.804;9.228;2023-04-29T01:49:23;13.90;99.90
72936;DHT22;61085;48.804;9.228;2023-04-29T01:51:48;14.00;99.90
72936;DHT22;61085;48.804;9.228;2023-04-29T01:54:14;13.80;99.90
72936;DHT22;61085;48.804;9.228;2023-04-29T01:56:40;13.80;99.90
72936;DHT22;61085;48.804;9.228;2023-04-29T01:59:05;13.90;99.90
72936;DHT22;61085;48.804;9.228;2023-04-29T02:01:32;13.80;99.90
72936;DHT22;61085;48.804;9.228;2023-04-29T02:03:58;13.80;99.90
72936;DHT22;61085;48.804;9.228;2023-04-29T02:06:24;13.70;99.90
72936;DHT22;61085;48.804;9.228;2023-04-29T02:08:50;13.70;99.90
72936;DHT22;61085;48.804;9.228;2023-04-29T02:11:16;13.70;99.90
72936;DHT22;61085;48.804;9.228;2023-04-29T02:13:42;13.60;99.90
72936;DHT22;61085;48.804;9.228;2023-04-29T02:16:12;13.60;99.90
72936;DHT22;61085;48.804;9.228;2023-04-29T02:18:38;13.60;99.90
72936;DHT22;61085;48.804;9.228;2023-04-29T02:21:04;13.40;99.90
72936;DHT22;61085;48.804;9.228;2023-04-29T02:23:30;13.50;99.90
72936;DHT22;61085;48.804;9.228;2023-04-29T02:25:56;13.40;99.90
72936;DHT22;61085;48.804;9.228;2023-04-29T02:28:21;13.60;99.90
72936;DHT22;61085;48.804;9.228;2023-04-29T02:30:50;13.50;99.90
72936;DHT22;61085;48.804;9.228;2023-04-29T02:33:16;13.50;99.90
72936;DHT22;61085;48.804;9.228;2023-04-29T02:35:43;13.50;99.90
72936;DHT22;61085;48.804;9.228;2023-04-29T02:38:09;13.30;99.90
72936;DHT22;61085;48.804;9.228;2023-04-29T02:40:40;13.30;99.90
72936;DHT22;61085;48.804;9.228;2023-04-29T02:43:06;13.20;99.90
72936;DHT22;61085;48.804;9.228;2023-04-29T02:45:31;13.20;99.90
72936;DHT22;61085;48.804;9.228;2023-04-29T02:47:57;13.10;99.90
72936;DHT22;61085;48.804;9.228;2023-04-29T02:50:23;13.10;99.90
72936;DHT22;61085;48.804;9.228;2023-04-29T02:52:50;13.10;99.90
72936;DHT22;61085;48.804;9.228;2023-04-29T02:55:16;13.10;99.90
72936;DHT22;61085;48.804;9.228;2023-04-29T02:57:43;13.10;99.90
72936;DHT22;61085;48.804;9.228;2023-04-29T03:00:09;13.00;99.90
72936;DHT22;61085;48.804;9.228;2023-04-29T03:02:35;13.00;99.90
72936;DHT22;61085;48.804;9.228;2023-04-29T03:05:02;13.10;99.90
72936;DHT22;61085;48.804;9.228;2023-04-29T03:07:28;13.00;99.90
72936;DHT22;61085;48.804;9.228;2023-04-29T03:09:54;13.00;99.90
72936;DHT22;61085;48.804;9.228;2023-04-29T03:12:20;13.00;99.90
72936;DHT22;61085;48.804;9.228;2023-04-29T03:14:46;12.90;99.90
72936;DHT22;61085;48.804;9.228;2023-04-29T03:17:12;12.90;99.90
72936;DHT22;61085;48.804;9.228;2023-04-29T03:19:38;13.00;99.90
72936;DHT22;61085;48.804;9.228;2023-04-29T03:22:04;12.90;99.90
72936;DHT22;61085;48.804;9.228;2023-04-29T03:24:30;12.90;99.90
72936;DHT22;61085;48.804;9.228;2023-04-29T03:26:56;12.80;99.90
72936;DHT22;61085;48.804;9.228;2023-04-29T03:29:22;12.80;99.90
72936;DHT22;61085;48.804;9.228;2023-04-29T03:31:48;12.80;99.90
72936;DHT22;61085;48.804;9.228;2023-04-29T03:34:14;12.80;99.90
72936;DHT22;61085;48.804;9.228;2023-04-29T03:36:39;12.80;99.90
72936;DHT22;61085;48.804;9.228;2023-04-29T03:39:05;12.70;99.90
72936;DHT22;61085;48.804;9.228;2023-04-29T03:41:30;12.60;99.90
72936;DHT22;61085;48.804;9.228;2023-04-29T03:43:56;12.60;99.90
72936;DHT22;61085;48.804;9.228;2023-04-29T03:46:26;12.50;99.90
72936;DHT22;61085;48.804;9.228;2023-04-29T03:48:51;12.50;99.90
72936;DHT22;61085;48.804;9.228;2023-04-29T03:51:21;12.50;99.90
72936;DHT22;61085;48.804;9.228;2023-04-29T03:53:47;12.40;99.90
72936;DHT22;61085;48.804;9.228;2023-04-29T03:56:12;12.30;99.90
72936;DHT22;61085;48.804;9.228;2023-04-29T03:58:38;12.30;99.90
72936;DHT22;61085;48.804;9.228;2023-04-29T04:01:04;12.40;99.90
72936;DHT22;61085;48.804;9.228;2023-04-29T04:03:29;12.50;99.90
72936;DHT22;61085;48.804;9.228;2023-04-29T04:05:55;12.40;99.90
72936;DHT22;61085;48.804;9.228;2023-04-29T04:08:20;12.40;99.90
72936;DHT22;61085;48.804;9.228;2023-04-29T04:10:46;12.40;99.90
72936;DHT22;61085;48.804;9.228;2023-04-29T04:13:11;12.30;99.90
72936;DHT22;61085;48.804;9.228;2023-04-29T04:15:38;12.40;99.90
72936;DHT22;61085;48.804;9.228;2023-04-29T04:18:04;12.40;99.90
72936;DHT22;61085;48.804;9.228;2023-04-29T04:20:30;12.40;99.90
72936;DHT22;61085;48.804;9.228;2023-04-29T04:22:56;12.50;99.90
72936;DHT22;61085;48.804;9.228;2023-04-29T04:25:21;12.40;99.90
72936;DHT22;61085;48.804;9.228;2023-04-29T04:27:47;12.40;99.90
72936;DHT22;61085;48.804;9.228;2023-04-29T04:30:13;12.40;99.90
72936;DHT22;61085;48.804;9.228;2023-04-29T04:32:38;12.40;99.90
72936;DHT22;61085;48.804;9.228;2023-04-29T04:35:04;12.50;99.90
72936;DHT22;61085;48.804;9.228;2023-04-29T04:37:31;12.40;99.90
72936;DHT22;61085;48.804;9.228;2023-04-29T04:39:56;12.60;99.90
72936;DHT22;61085;48.804;9.228;2023-04-29T04:42:22;12.80;99.90
72936;DHT22;61085;48.804;9.228;2023-04-29T04:44:48;13.10;99.90
72936;DHT22;61085;48.804;9.228;2023-04-29T04:47:13;14.20;99.90
72936;DHT22;61085;48.804;9.228;2023-04-29T04:49:39;15.20;99.90
72936;DHT22;61085;48.804;9.228;2023-04-29T04:52:04;16.40;99.90
72936;DHT22;61085;48.804;9.228;2023-04-29T04:54:31;17.50;99.90
72936;DHT22;61085;48.804;9.228;2023-04-29T04:56:56;17.60;99.90
72936;DHT22;61085;48.804;9.228;2023-04-29T04:59:22;17.00;99.90
72936;DHT22;61085;48.804;9.228;2023-04-29T05:01:47;16.30;99.90
72936;DHT22;61085;48.804;9.228;2023-04-29T05:04:13;15.60;99.90
72936;DHT22;61085;48.804;9.228;2023-04-29T05:06:39;14.90;99.90
72936;DHT22;61085;48.804;9.228;2023-04-29T05:09:05;14.40;99.90
72936;DHT22;61085;48.804;9.228;2023-04-29T05:11:31;14.00;99.90
72936;DHT22;61085;48.804;9.228;2023-04-29T05:13:56;14.00;99.90
72936;DHT22;61085;48.804;9.228;2023-04-29T05:16:22;14.00;99.90
72936;DHT22;61085;48.804;9.228;2023-04-29T05:18:47;14.00;99.90
72936;DHT22;61085;48.804;9.228;2023-04-29T05:21:13;13.80;99.90
72936;DHT22;61085;48.804;9.228;2023-04-29T05:23:39;13.60;99.90
72936;DHT22;61085;48.804;9.228;2023-04-29T05:26:04;13.40;99.90
72936;DHT22;61085;48.804;9.228;2023-04-29T05:28:30;13.20;99.90
72936;DHT22;61085;48.804;9.228;2023-04-29T05:30:56;13.20;99.90
72936;DHT22;61085;48.804;9.228;2023-04-29T05:33:21;13.10;99.90
72936;DHT22;61085;48.804;9.228;2023-04-29T05:35:47;13.20;99.90
72936;DHT22;61085;48.804;9.228;2023-04-29T05:38:12;13.30;99.90
72936;DHT22;61085;48.804;9.228;2023-04-29T05:40:38;13.50;99.90
72936;DHT22;61085;48.804;9.228;2023-04-29T05:43:04;14.10;99.90
72936;DHT22;61085;48.804;9.228;2023-04-29T05:45:30;14.80;99.90
72936;DHT22;61085;48.804;9.228;2023-04-29T05:47:55;16.00;99.90
72936;DHT22;61085;48.804;9.228;2023-04-29T05:50:21;17.90;99.90
72936;DHT22;61085;48.804;9.228;2023-04-29T05:52:47;19.80;99.90
72936;DHT22;61085;48.804;9.228;2023-04-29T05:55:13;20.90;99.90
72936;DHT22;61085;48.804;9.228;2023-04-29T05:57:41;20.70;99.90
72936;DHT22;61085;48.804;9.228;2023-04-29T06:00:07;20.30;99.90
72936;DHT22;61085;48.804;9.228;2023-04-29T06:02:33;19.60;99.90
72936;DHT22;61085;48.804;9.228;2023-04-29T06:04:59;19.30;99.90
72936;DHT22;61085;48.804;9.228;2023-04-29T06:07:25;19.30;99.90
72936;DHT22;61085;48.804;9.228;2023-04-29T06:09:52;19.10;99.90
72936;DHT22;61085;48.804;9.228;2023-04-29T06:12:17;19.30;99.90
72936;DHT22;61085;48.804;9.228;2023-04-29T06:14:43;19.70;99.90
72936;DHT22;61085;48.804;9.228;2023-04-29T06:17:10;20.20;99.90
72936;DHT22;61085;48.804;9.228;2023-04-29T06:19:36;20.80;99.90
72936;DHT22;61085;48.804;9.228;2023-04-29T06:22:02;20.70;99.90
72936;DHT22;61085;48.804;9.228;2023-04-29T06:24:27;20.30;99.90
72936;DHT22;61085;48.804;9.228;2023-04-29T06:26:53;19.40;99.90
72936;DHT22;61085;48.804;9.228;2023-04-29T06:29:19;18.70;99.90
72936;DHT22;61085;48.804;9.228;2023-04-29T06:31:44;18.40;99.90
72936;DHT22;61085;48.804;9.228;2023-04-29T06:34:10;18.20;99.90
72936;DHT22;61085;48.804;9.228;2023-04-29T06:36:35;18.00;99.90
72936;DHT22;61085;48.804;9.228;2023-04-29T06:39:01;18.30;99.90
72936;DHT22;61085;48.804;9.228;2023-04-29T06:41:26;18.50;99.90
72936;DHT22;61085;48.804;9.228;2023-04-29T06:43:52;18.50;99.90
72936;DHT22;61085;48.804;9.228;2023-04-29T06:46:18;18.30;99.90
72936;DHT22;61085;48.804;9.228;2023-04-29T06:48:43;17.90;99.90
72936;DHT22;61085;48.804;9.228;2023-04-29T06:51:09;17.50;99.90
72936;DHT22;61085;48.804;9.228;2023-04-29T06:53:34;17.60;99.90
72936;DHT22;61085;48.804;9.228;2023-04-29T06:56:00;17.90;99.90
72936;DHT22;61085;48.804;9.228;2023-04-29T06:58:26;18.10;99.90
72936;DHT22;61085;48.804;9.228;2023-04-29T07:00:51;17.90;99.90
72936;DHT22;61085;48.804;9.228;2023-04-29T07:03:22;17.50;99.90
72936;DHT22;61085;48.804;9.228;2023-04-29T07:05:48;17.20;99.90
72936;DHT22;61085;48.804;9.228;2023-04-29T07:08:14;16.80;99.90
72936;DHT22;61085;48.804;9.228;2023-04-29T07:10:40;16.70;99.90
72936;DHT22;61085;48.804;9.228;2023-04-29T07:13:06;17.20;99.90
72936;DHT22;61085;48.804;9.228;2023-04-29T07:15:35;17.40;99.90
72936;DHT22;61085;48.804;9.228;2023-04-29T07:18:04;17.90;99.90
72936;DHT22;61085;48.804;9.228;2023-04-29T07:20:30;18.10;99.90
72936;DHT22;61085;48.804;9.228;2023-04-29T07:22:56;18.40;99.90
72936;DHT22;61085;48.804;9.228;2023-04-29T07:25:21;18.80;99.90
72936;DHT22;61085;48.804;9.228;2023-04-29T07:27:47;19.30;99.90
72936;DHT22;61085;48.804;9.228;2023-04-29T07:30:13;19.60;99.90
72936;DHT22;61085;48.804;9.228;2023-04-29T07:32:38;19.50;99.90
72936;DHT22;61085;48.804;9.228;2023-04-29T07:35:04;19.20;99.90
72936;DHT22;61085;48.804;9.228;2023-04-29T07:37:30;18.80;99.90
72936;DHT22;61085;48.804;9.228;2023-04-29T07:39:56;18.40;99.90
72936;DHT22;61085;48.804;9.228;2023-04-29T07:42:21;18.00;99.90
72936;DHT22;61085;48.804;9.228;2023-04-29T07:44:47;17.80;99.90
72936;DHT22;61085;48.804;9.228;2023-04-29T07:47:12;17.80;99.90
72936;DHT22;61085;48.804;9.228;2023-04-29T07:49:38;17.70;99.90
72936;DHT22;61085;48.804;9.228;2023-04-29T07:52:04;17.60;99.90
72936;DHT22;61085;48.804;9.228;2023-04-29T07:54:30;17.50;99.90
72936;DHT22;61085;48.804;9.228;2023-04-29T07:56:59;17.50;99.90
72936;DHT22;61085;48.804;9.228;2023-04-29T07:59:26;17.30;99.90
72936;DHT22;61085;48.804;9.228;2023-04-29T08:01:51;17.00;99.90
72936;DHT22;61085;48.804;9.228;2023-04-29T08:04:18;17.20;99.90
72936;DHT22;61085;48.804;9.228;2023-04-29T08:06:43;16.90;99.90
72936;DHT22;61085;48.804;9.228;2023-04-29T08:09:09;17.00;99.90
72936;DHT22;61085;48.804;9.228;2023-04-29T08:11:35;16.80;99.90
72936;DHT22;61085;48.804;9.228;2023-04-29T08:14:01;16.60;99.90
72936;DHT22;61085;48.804;9.228;2023-04-29T08:16:26;16.60;99.90
72936;DHT22;61085;48.804;9.228;2023-04-29T08:18:52;16.50;99.90
72936;DHT22;61085;48.804;9.228;2023-04-29T08:21:18;16.40;99.90
72936;DHT22;61085;48.804;9.228;2023-04-29T08:23:44;16.50;99.90
72936;DHT22;61085;48.804;9.228;2023-04-29T08:26:10;16.40;99.90
72936;DHT22;61085;48.804;9.228;2023-04-29T08:28:39;16.40;99.90
72936;DHT22;61085;48.804;9.228;2023-04-29T08:31:05;16.40;99.90
72936;DHT22;61085;48.804;9.228;2023-04-29T08:33:35;16.40;99.90
72936;DHT22;61085;48.804;9.228;2023-04-29T08:36:01;16.30;99.90
72936;DHT22;61085;48.804;9.228;2023-04-29T08:38:30;16.40;99.90
72936;DHT22;61085;48.804;9.228;2023-04-29T08:40:56;16.40;99.90
72936;DHT22;61085;48.804;9.228;2023-04-29T08:43:22;16.10;99.90
72936;DHT22;61085;48.804;9.228;2023-04-29T08:45:48;16.10;99.90
72936;DHT22;61085;48.804;9.228;2023-04-29T08:48:15;16.00;99.90
72936;DHT22;61085;48.804;9.228;2023-04-29T08:50:41;16.00;99.90
72936;DHT22;61085;48.804;9.228;2023-04-29T08:53:08;16.00;99.90
72936;DHT22;61085;48.804;9.228;2023-04-29T08:55:35;15.70;99.90
72936;DHT22;61085;48.804;9.228;2023-04-29T08:58:02;16.00;99.90
72936;DHT22;61085;48.804;9.228;2023-04-29T09:00:30;15.90;99.90
72936;DHT22;61085;48.804;9.228;2023-04-29T09:02:56;15.80;99.90
72936;DHT22;61085;48.804;9.228;2023-04-29T09:05:23;16.10;99.90
72936;DHT22;61085;48.804;9.228;2023-04-29T09:07:50;16.20;99.90
72936;DHT22;61085;48.804;9.228;2023-04-29T09:10:17;16.30;99.90
72936;DHT22;61085;48.804;9.228;2023-04-29T09:12:43;16.50;99.90
72936;DHT22;61085;48.804;9.228;2023-04-29T09:15:09;16.80;99.90
72936;DHT22;61085;48.804;9.228;2023-04-29T09:17:47;17.00;99.90
72936;DHT22;61085;48.804;9.228;2023-04-29T09:22:52;17.20;99.90
72936;DHT22;61085;48.804;9.228;2023-04-29T09:25:19;17.40;99.90
72936;DHT22;61085;48.804;9.228;2023-04-29T09:27:45;17.40;99.90
72936;DHT22;61085;48.804;9.228;2023-04-29T09:30:11;17.40;99.90
72936;DHT22;61085;48.804;9.228;2023-04-29T09:32:38;17.20;99.90
72936;DHT22;61085;48.804;9.228;2023-04-29T09:35:23;17.20;99.90
72936;DHT22;61085;48.804;9.228;2023-04-29T09:37:53;17.20;99.90
72936;DHT22;61085;48.804;9.228;2023-04-29T09:40:33;17.10;99.90
72936;DHT22;61085;48.804;9.228;2023-04-29T09:42:59;17.30;99.90
72936;DHT22;61085;48.804;9.228;2023-04-29T09:45:39;17.70;99.90
72936;DHT22;61085;48.804;9.228;2023-04-29T09:48:07;18.00;99.90
72936;DHT22;61085;48.804;9.228;2023-04-29T09:50:37;18.00;99.90
72936;DHT22;61085;48.804;9.228;2023-04-29T09:53:05;17.90;99.90
72936;DHT22;61085;48.804;9.228;2023-04-29T09:58:33;18.30;99.90
72936;DHT22;61085;48.804;9.228;2023-04-29T10:01:03;18.20;99.90
72936;DHT22;61085;48.804;9.228;2023-04-29T10:03:33;18.30;99.90
72936;DHT22;61085;48.804;9.228;2023-04-29T10:06:00;18.40;99.90
72936;DHT22;61085;48.804;9.228;2023-04-29T10:08:28;18.60;99.90
72936;DHT22;61085;48.804;9.228;2023-04-29T10:10:58;18.60;99.90
72936;DHT22;61085;48.804;9.228;2023-04-29T10:13:24;18.70;99.90
72936;DHT22;61085;48.804;9.228;2023-04-29T10:18:40;18.80;99.90
72936;DHT22;61085;48.804;9.228;2023-04-29T10:21:07;19.00;99.90
72936;DHT22;61085;48.804;9.228;2023-04-29T10:23:34;19.10;99.90
72936;DHT22;61085;48.804;9.228;2023-04-29T10:26:01;19.10;99.90
72936;DHT22;61085;48.804;9.228;2023-04-29T10:28:30;19.60;99.90
72936;DHT22;61085;48.804;9.228;2023-04-29T10:31:00;19.20;98.40
72936;DHT22;61085;48.804;9.228;2023-04-29T10:33:30;19.00;99.90
72936;DHT22;61085;48.804;9.228;2023-04-29T10:35:58;18.90;99.90
72936;DHT22;61085;48.804;9.228;2023-04-29T10:38:27;18.90;99.90
72936;DHT22;61085;48.804;9.228;2023-04-29T10:40:55;18.60;99.90
72936;DHT22;61085;48.804;9.228;2023-04-29T10:43:25;18.60;99.90
72936;DHT22;61085;48.804;9.228;2023-04-29T10:48:42;18.00;99.90
72936;DHT22;61085;48.804;9.228;2023-04-29T10:51:08;18.10;99.90
72936;DHT22;61085;48.804;9.228;2023-04-29T10:53:33;18.40;99.90
72936;DHT22;61085;48.804;9.228;2023-04-29T10:56:07;18.30;99.90
72936;DHT22;61085;48.804;9.228;2023-04-29T11:01:09;17.70;99.90
72936;DHT22;61085;48.804;9.228;2023-04-29T11:03:54;17.90;99.90
72936;DHT22;61085;48.804;9.228;2023-04-29T11:09:14;18.10;99.90
72936;DHT22;61085;48.804;9.228;2023-04-29T11:14:10;18.20;99.90
72936;DHT22;61085;48.804;9.228;2023-04-29T11:16:36;18.10;99.90
72936;DHT22;61085;48.804;9.228;2023-04-29T11:19:07;18.30;99.90
72936;DHT22;61085;48.804;9.228;2023-04-29T11:21:34;18.40;99.90
72936;DHT22;61085;48.804;9.228;2023-04-29T11:24:00;18.50;97.80
72936;DHT22;61085;48.804;9.228;2023-04-29T11:26:27;18.30;96.20
72936;DHT22;61085;48.804;9.228;2023-04-29T11:28:53;18.40;95.90
72936;DHT22;61085;48.804;9.228;2023-04-29T11:31:22;18.60;95.80
72936;DHT22;61085;48.804;9.228;2023-04-29T11:33:50;18.40;96.10
72936;DHT22;61085;48.804;9.228;2023-04-29T11:36:15;18.20;97.50
72936;DHT22;61085;48.804;9.228;2023-04-29T11:38:41;18.40;98.30
72936;DHT22;61085;48.804;9.228;2023-04-29T11:41:09;18.20;97.40
72936;DHT22;61085;48.804;9.228;2023-04-29T11:43:35;18.30;97.90
72936;DHT22;61085;48.804;9.228;2023-04-29T11:46:01;18.40;98.00
72936;DHT22;61085;48.804;9.228;2023-04-29T11:48:26;18.40;96.80
72936;DHT22;61085;48.804;9.228;2023-04-29T11:50:56;18.50;95.80
72936;DHT22;61085;48.804;9.228;2023-04-29T11:53:24;18.40;95.90
72936;DHT22;61085;48.804;9.228;2023-04-29T11:55:53;18.40;97.90
72936;DHT22;61085;48.804;9.228;2023-04-29T11:58:23;18.50;98.00
72936;DHT22;61085;48.804;9.228;2023-04-29T12:00:49;18.70;99.40
72936;DHT22;61085;48.804;9.228;2023-04-29T12:03:17;18.60;98.90
72936;DHT22;61085;48.804;9.228;2023-04-29T12:08:12;18.80;99.70
72936;DHT22;61085;48.804;9.228;2023-04-29T12:10:38;18.50;98.30
72936;DHT22;61085;48.804;9.228;2023-04-29T12:13:04;19.00;99.90
72936;DHT22;61085;48.804;9.228;2023-04-29T12:15:30;19.10;98.80
72936;DHT22;61085;48.804;9.228;2023-04-29T12:17:56;19.00;95.70
72936;DHT22;61085;48.804;9.228;2023-04-29T12:20:22;19.00;97.50
72936;DHT22;61085;48.804;9.228;2023-04-29T12:22:47;19.20;96.90
72936;DHT22;61085;48.804;9.228;2023-04-29T12:25:14;19.20;96.00
72936;DHT22;61085;48.804;9.228;2023-04-29T12:27:41;18.60;97.50
72936;DHT22;61085;48.804;9.228;2023-04-29T12:30:08;18.70;98.90
72936;DHT22;61085;48.804;9.228;2023-04-29T12:32:33;18.60;97.60
72936;DHT22;61085;48.804;9.228;2023-04-29T12:34:59;18.40;98.50
72936;DHT22;61085;48.804;9.228;2023-04-29T12:37:25;18.40;99.90
72936;DHT22;61085;48.804;9.228;2023-04-29T12:39:53;18.50;99.80
72936;DHT22;61085;48.804;9.228;2023-04-29T12:42:19;18.60;98.40
72936;DHT22;61085;48.804;9.228;2023-04-29T12:44:46;18.40;98.60
72936;DHT22;61085;48.804;9.228;2023-04-29T12:47:12;18.10;97.80
72936;DHT22;61085;48.804;9.228;2023-04-29T12:49:45;17.90;99.70
72936;DHT22;61085;48.804;9.228;2023-04-29T12:52:11;18.00;99.90
72936;DHT22;61085;48.804;9.228;2023-04-29T12:54:38;18.10;99.90
72936;DHT22;61085;48.804;9.228;2023-04-29T12:57:06;18.30;99.90
72936;DHT22;61085;48.804;9.228;2023-04-29T12:59:32;18.90;99.90
72936;DHT22;61085;48.804;9.228;2023-04-29T13:01:57;18.50;99.90
72936;DHT22;61085;48.804;9.228;2023-04-29T13:04:23;18.70;98.80
72936;DHT22;61085;48.804;9.228;2023-04-29T13:06:48;18.70;99.60
72936;DHT22;61085;48.804;9.228;2023-04-29T13:09:18;18.70;98.80
72936;DHT22;61085;48.804;9.228;2023-04-29T13:11:44;18.60;99.30
72936;DHT22;61085;48.804;9.228;2023-04-29T13:14:09;18.40;98.90
72936;DHT22;61085;48.804;9.228;2023-04-29T13:16:35;18.30;99.90
72936;DHT22;61085;48.804;9.228;2023-04-29T13:19:01;18.10;99.70
72936;DHT22;61085;48.804;9.228;2023-04-29T13:21:27;18.00;99.90
72936;DHT22;61085;48.804;9.228;2023-04-29T13:23:53;18.40;99.30
72936;DHT22;61085;48.804;9.228;2023-04-29T13:26:19;17.90;99.30
72936;DHT22;61085;48.804;9.228;2023-04-29T13:28:45;18.10;99.30
72936;DHT22;61085;48.804;9.228;2023-04-29T13:31:11;18.10;99.30
72936;DHT22;61085;48.804;9.228;2023-04-29T13:33:36;18.00;99.70
72936;DHT22;61085;48.804;9.228;2023-04-29T13:36:02;17.90;99.90
72936;DHT22;61085;48.804;9.228;2023-04-29T13:38:28;18.10;99.90
72936;DHT22;61085;48.804;9.228;2023-04-29T13:40:53;17.70;99.90
72936;DHT22;61085;48.804;9.228;2023-04-29T13:43:19;17.80;99.90
72936;DHT22;61085;48.804;9.228;2023-04-29T13:45:47;17.90;99.90
72936;DHT22;61085;48.804;9.228;2023-04-29T13:48:13;18.10;99.90
72936;DHT22;61085;48.804;9.228;2023-04-29T13:50:38;18.00;99.90
72936;DHT22;61085;48.804;9.228;2023-04-29T13:53:05;17.60;99.90
72936;DHT22;61085;48.804;9.228;2023-04-29T13:55:32;17.50;99.90
72936;DHT22;61085;48.804;9.228;2023-04-29T13:57:59;17.90;99.90
72936;DHT22;61085;48.804;9.228;2023-04-29T14:00:25;18.10;99.90
72936;DHT22;61085;48.804;9.228;2023-04-29T14:02:51;17.80;99.50
72936;DHT22;61085;48.804;9.228;2023-04-29T14:05:17;17.60;99.90
72936;DHT22;61085;48.804;9.228;2023-04-29T14:07:42;17.60;99.90
72936;DHT22;61085;48.804;9.228;2023-04-29T14:10:08;17.40;99.90
72936;DHT22;61085;48.804;9.228;2023-04-29T14:12:34;17.50;99.90
72936;DHT22;61085;48.804;9.228;2023-04-29T14:14:59;17.70;99.90
72936;DHT22;61085;48.804;9.228;2023-04-29T14:17:25;18.10;99.90
72936;DHT22;61085;48.804;9.228;2023-04-29T14:19:51;18.10;99.90
72936;DHT22;61085;48.804;9.228;2023-04-29T14:22:17;17.90;99.40
72936;DHT22;61085;48.804;9.228;2023-04-29T14:24:43;17.60;99.90
72936;DHT22;61085;48.804;9.228;2023-04-29T14:27:08;17.70;99.90
72936;DHT22;61085;48.804;9.228;2023-04-29T14:29:34;17.70;99.70
72936;DHT22;61085;48.804;9.228;2023-04-29T14:31:59;17.50;99.80
72936;DHT22;61085;48.804;9.228;2023-04-29T14:34:25;17.70;99.90
72936;DHT22;61085;48.804;9.228;2023-04-29T14:36:50;17.80;99.40
72936;DHT22;61085;48.804;9.228;2023-04-29T14:39:16;17.60;99.80
72936;DHT22;61085;48.804;9.228;2023-04-29T14:41:42;17.50;99.50
72936;DHT22;61085;48.804;9.228;2023-04-29T14:44:08;17.60;99.90
72936;DHT22;61085;48.804;9.228;2023-04-29T14:46:34;17.70;99.30
72936;DHT22;61085;48.804;9.228;2023-04-29T14:49:00;17.70;98.60
72936;DHT22;61085;48.804;9.228;2023-04-29T14:51:26;17.40;99.00
72936;DHT22;61085;48.804;9.228;2023-04-29T14:53:52;17.30;98.80
72936;DHT22;61085;48.804;9.228;2023-04-29T14:56:18;17.20;98.80
72936;DHT22;61085;48.804;9.228;2023-04-29T14:58:43;17.30;99.70
72936;DHT22;61085;48.804;9.228;2023-04-29T15:01:09;17.40;99.10
72936;DHT22;61085;48.804;9.228;2023-04-29T15:03:35;17.50;99.00
72936;DHT22;61085;48.804;9.228;2023-04-29T15:06:01;17.80;99.10
72936;DHT22;61085;48.804;9.228;2023-04-29T15:08:28;17.70;99.30
72936;DHT22;61085;48.804;9.228;2023-04-29T15:10:54;17.40;97.80
72936;DHT22;61085;48.804;9.228;2023-04-29T15:13:20;17.50;98.00
72936;DHT22;61085;48.804;9.228;2023-04-29T15:15:46;17.60;98.80
72936;DHT22;61085;48.804;9.228;2023-04-29T15:18:11;17.60;99.60
72936;DHT22;61085;48.804;9.228;2023-04-29T15:20:37;17.70;99.90
72936;DHT22;61085;48.804;9.228;2023-04-29T15:23:03;17.80;99.90
72936;DHT22;61085;48.804;9.228;2023-04-29T15:25:30;17.60;99.20
72936;DHT22;61085;48.804;9.228;2023-04-29T15:27:57;17.40;99.90
72936;DHT22;61085;48.804;9.228;2023-04-29T15:30:26;17.20;99.90
72936;DHT22;61085;48.804;9.228;2023-04-29T15:32:53;17.40;99.90
72936;DHT22;61085;48.804;9.228;2023-04-29T15:35:19;17.50;99.90
72936;DHT22;61085;48.804;9.228;2023-04-29T15:37:45;17.30;99.90
72936;DHT22;61085;48.804;9.228;2023-04-29T15:40:11;17.20;99.90
72936;DHT22;61085;48.804;9.228;2023-04-29T15:42:36;17.10;99.90
72936;DHT22;61085;48.804;9.228;2023-04-29T15:45:02;17.00;99.90
72936;DHT22;61085;48.804;9.228;2023-04-29T15:47:28;17.20;99.90
72936;DHT22;61085;48.804;9.228;2023-04-29T15:49:54;17.00;99.90
72936;DHT22;61085;48.804;9.228;2023-04-29T15:52:21;16.80;99.90
72936;DHT22;61085;48.804;9.228;2023-04-29T15:54:47;16.60;99.90
72936;DHT22;61085;48.804;9.228;2023-04-29T15:57:13;16.80;99.90
72936;DHT22;61085;48.804;9.228;2023-04-29T15:59:38;16.60;99.90